Time;durP1;ratioP1;P1;durP2;ratioP2;P2;SDS_P1;SDS_P2;PMS_P1;PMS_P2;Temp;Humidity;BMP_temperature;BMP_pressure;BME280_temperature;BME280_humidity;BME280_pressure;Samples;Min_cycle;Max_cycle;Signal;HPM_P1;HPM_P2
2021/07/08 00:00:36;;;;;;;27.35;10.93;;;15.10;99.90;;;;;;5012709;28;20072;-83
2021/07/08 00:03:04;;;;;;;26.13;11.27;;;15.10;99.90;;;;;;5012964;28;20045;-83
2021/07/08 00:05:36;;;;;;;30.13;12.15;;;15.10;99.90;;;;;;5013625;28;20444;-83
2021/07/08 00:08:04;;;;;;;26.75;12.10;;;15.10;99.90;;;;;;5016497;28;20058;-83
2021/07/08 00:10:37;;;;;;;29.27;11.60;;;15.10;99.90;;;;;;5015925;28;20042;-83
2021/07/08 00:13:05;;;;;;;34.85;12.30;;;15.10;99.90;;;;;;5031311;28;20487;-83
2021/07/08 00:15:33;;;;;;;24.40;11.88;;;15.10;99.90;;;;;;5013197;28;20442;-83
2021/07/08 00:18:03;;;;;;;28.67;11.87;;;15.10;99.90;;;;;;5012281;28;20049;-83
2021/07/08 00:20:31;;;;;;;24.63;11.70;;;15.10;99.90;;;;;;5005290;28;20055;-83
2021/07/08 00:22:58;;;;;;;24.30;11.68;;;15.10;99.90;;;;;;5029754;28;20388;-84
2021/07/08 00:25:28;;;;;;;29.83;12.00;;;15.10;99.90;;;;;;5010166;28;20447;-83
2021/07/08 00:27:56;;;;;;;29.13;11.90;;;15.10;99.90;;;;;;5030881;28;20057;-84
2021/07/08 00:30:24;;;;;;;31.75;12.13;;;15.10;99.90;;;;;;5010711;28;20070;-84
2021/07/08 00:32:51;;;;;;;24.63;10.82;;;15.00;99.90;;;;;;5009915;28;20048;-83
2021/07/08 00:35:22;;;;;;;32.83;11.70;;;15.00;99.90;;;;;;5013154;28;20052;-84
2021/07/08 00:37:49;;;;;;;28.83;11.95;;;15.00;99.90;;;;;;5013652;28;20041;-83
2021/07/08 00:40:16;;;;;;;35.97;11.45;;;15.00;99.90;;;;;;5015562;28;20071;-83
2021/07/08 00:42:44;;;;;;;30.75;11.30;;;15.00;99.90;;;;;;5026375;28;20056;-84
2021/07/08 00:45:14;;;;;;;27.75;11.35;;;15.00;99.90;;;;;;5027278;28;20133;-83
2021/07/08 00:47:42;;;;;;;34.60;10.95;;;15.00;99.90;;;;;;5006452;28;20037;-84
2021/07/08 00:50:11;;;;;;;30.50;11.07;;;15.00;99.90;;;;;;5035690;28;20037;-83
2021/07/08 00:52:38;;;;;;;25.55;10.40;;;15.00;99.90;;;;;;5020085;28;20057;-84
2021/07/08 00:55:07;;;;;;;25.13;10.68;;;15.00;99.90;;;;;;5018200;28;20049;-84
2021/07/08 00:57:34;;;;;;;28.02;10.80;;;15.00;99.90;;;;;;5020706;28;20050;-84
2021/07/08 01:00:04;;;;;;;31.35;10.73;;;15.00;99.90;;;;;;5035741;28;20056;-83
2021/07/08 01:02:31;;;;;;;23.77;10.18;;;15.00;99.90;;;;;;5020294;28;20045;-83
2021/07/08 01:04:58;;;;;;;31.48;10.70;;;15.00;99.90;;;;;;5037277;28;20064;-83
2021/07/08 01:07:26;;;;;;;31.70;12.15;;;15.10;99.90;;;;;;5034647;28;20553;-83
2021/07/08 01:09:53;;;;;;;32.22;11.48;;;15.10;99.90;;;;;;5019280;28;20537;-83
2021/07/08 01:12:20;;;;;;;26.50;10.70;;;15.00;99.90;;;;;;5022820;28;20383;-83
2021/07/08 01:14:47;;;;;;;42.03;10.82;;;15.00;99.90;;;;;;5005444;28;20098;-83
2021/07/08 01:17:15;;;;;;;25.15;10.50;;;15.00;99.90;;;;;;5016888;28;20483;-83
2021/07/08 01:19:42;;;;;;;28.40;10.90;;;15.00;99.90;;;;;;5044849;28;20041;-83
2021/07/08 01:22:10;;;;;;;27.17;11.23;;;15.00;99.90;;;;;;5016210;28;20441;-83
2021/07/08 01:24:38;;;;;;;23.98;10.68;;;15.00;99.90;;;;;;5018408;28;20034;-83
2021/07/08 01:27:06;;;;;;;35.17;10.95;;;15.00;99.90;;;;;;5016911;28;20478;-83
2021/07/08 01:29:33;;;;;;;29.83;10.45;;;15.00;99.90;;;;;;5020117;28;20103;-84
2021/07/08 01:32:00;;;;;;;21.70;10.90;;;15.00;99.90;;;;;;5003125;28;20125;-83
2021/07/08 01:34:28;;;;;;;31.42;10.70;;;15.00;99.90;;;;;;5019012;28;20037;-84
2021/07/08 01:36:55;;;;;;;32.78;10.52;;;15.00;99.90;;;;;;5036934;28;20054;-84
2021/07/08 01:39:22;;;;;;;25.92;11.25;;;15.00;99.90;;;;;;5025257;28;20095;-83
2021/07/08 01:41:49;;;;;;;29.63;11.05;;;15.00;99.90;;;;;;5015308;28;20041;-83
2021/07/08 01:44:17;;;;;;;29.30;11.27;;;15.00;99.90;;;;;;5018087;28;20480;-84
2021/07/08 01:46:44;;;;;;;31.25;11.13;;;15.00;99.90;;;;;;5021235;28;20052;-83
2021/07/08 01:49:12;;;;;;;29.87;11.80;;;15.00;99.90;;;;;;5019076;28;20073;-84
2021/07/08 01:51:39;;;;;;;31.10;11.27;;;15.00;99.90;;;;;;5032571;28;20276;-83
2021/07/08 01:54:09;;;;;;;30.23;10.95;;;15.00;99.90;;;;;;5022936;28;20045;-84
2021/07/08 01:56:38;;;;;;;26.15;10.15;;;14.90;99.90;;;;;;5035934;28;20505;-84
2021/07/08 01:59:05;;;;;;;28.38;10.68;;;15.00;99.90;;;;;;5013603;28;20456;-84
2021/07/08 02:01:33;;;;;;;26.92;11.13;;;14.90;99.90;;;;;;5016130;28;20049;-84
2021/07/08 02:04:00;;;;;;;28.48;10.00;;;14.90;99.90;;;;;;5015776;28;20072;-84
2021/07/08 02:06:27;;;;;;;27.50;10.90;;;15.00;99.90;;;;;;5009954;28;20053;-84
2021/07/08 02:08:54;;;;;;;27.52;11.23;;;14.90;99.90;;;;;;5014184;28;20050;-84
2021/07/08 02:11:22;;;;;;;26.45;10.93;;;14.90;99.90;;;;;;5013810;28;20056;-84
2021/07/08 02:13:50;;;;;;;33.53;11.23;;;15.00;99.90;;;;;;5016635;28;20037;-84
2021/07/08 02:16:18;;;;;;;19.85;9.88;;;15.00;99.90;;;;;;5013075;28;20118;-84
2021/07/08 02:18:46;;;;;;;26.33;10.43;;;14.90;99.90;;;;;;5016690;28;20068;-84
2021/07/08 02:21:14;;;;;;;25.77;11.05;;;14.90;99.90;;;;;;5022296;28;20046;-84
2021/07/08 02:23:41;;;;;;;26.17;10.85;;;15.00;99.90;;;;;;5021642;28;20049;-84
2021/07/08 02:26:09;;;;;;;27.33;10.13;;;14.90;99.90;;;;;;5030794;28;20117;-84
2021/07/08 02:28:39;;;;;;;30.80;11.07;;;14.90;99.90;;;;;;5014965;28;20042;-84
2021/07/08 02:31:06;;;;;;;23.60;10.40;;;14.90;99.90;;;;;;5013220;28;20065;-84
2021/07/08 02:33:33;;;;;;;31.83;12.05;;;14.90;99.90;;;;;;5014670;28;20124;-84
2021/07/08 02:36:01;;;;;;;23.77;11.02;;;14.90;99.90;;;;;;5011845;28;20054;-84
2021/07/08 02:38:28;;;;;;;32.63;11.45;;;14.90;99.90;;;;;;5013278;28;20050;-83
2021/07/08 02:40:55;;;;;;;30.17;11.25;;;14.90;99.90;;;;;;5020602;28;20046;-84
2021/07/08 02:43:22;;;;;;;34.47;11.68;;;14.90;99.90;;;;;;5027001;28;20122;-84
2021/07/08 02:45:49;;;;;;;30.67;12.48;;;14.80;99.90;;;;;;5015713;28;20068;-84
2021/07/08 02:48:19;;;;;;;27.83;11.68;;;14.90;99.90;;;;;;5009220;28;20099;-84
2021/07/08 02:50:50;;;;;;;32.30;12.48;;;14.80;99.90;;;;;;5013569;28;20049;-84
2021/07/08 02:53:18;;;;;;;33.67;12.40;;;14.90;99.90;;;;;;5027155;28;20372;-84
2021/07/08 02:55:45;;;;;;;28.63;12.32;;;14.80;99.90;;;;;;5022328;28;20095;-84
2021/07/08 02:58:13;;;;;;;26.77;12.35;;;14.80;99.90;;;;;;5015282;28;20487;-84
2021/07/08 03:00:40;;;;;;;33.05;11.60;;;14.80;99.90;;;;;;5005553;28;20041;-84
2021/07/08 03:03:07;;;;;;;32.53;12.05;;;14.80;99.90;;;;;;5013185;28;20057;-84
2021/07/08 03:05:35;;;;;;;30.75;11.38;;;14.80;99.90;;;;;;5031411;28;20045;-84
2021/07/08 03:08:02;;;;;;;20.60;9.90;;;14.80;99.90;;;;;;5022372;28;20076;-84
2021/07/08 03:10:30;;;;;;;26.85;9.20;;;14.80;99.90;;;;;;5017972;28;20046;-84
2021/07/08 03:12:58;;;;;;;23.48;9.27;;;14.80;99.90;;;;;;5015278;28;20120;-83
2021/07/08 03:15:26;;;;;;;26.27;10.13;;;14.80;99.90;;;;;;5030552;28;20046;-84
2021/07/08 03:17:54;;;;;;;22.20;8.70;;;14.80;99.90;;;;;;5018910;28;20285;-84
2021/07/08 03:20:24;;;;;;;20.27;8.45;;;14.80;99.90;;;;;;5040059;28;20825;-84
2021/07/08 03:22:51;;;;;;;22.83;9.27;;;14.80;99.90;;;;;;5015113;28;20044;-84
2021/07/08 03:25:21;;;;;;;21.67;8.32;;;14.70;99.90;;;;;;5024620;28;20270;-84
2021/07/08 03:27:49;;;;;;;20.70;9.10;;;14.70;99.90;;;;;;5020411;28;20102;-84
2021/07/08 03:30:20;;;;;;;23.42;8.85;;;14.70;99.90;;;;;;5018921;28;20045;-84
2021/07/08 03:32:49;;;;;;;22.38;7.85;;;14.70;99.90;;;;;;5031418;28;20087;-83
2021/07/08 03:35:22;;;;;;;18.73;8.10;;;14.70;99.90;;;;;;4998261;28;20049;-84
2021/07/08 03:37:49;;;;;;;24.83;8.02;;;14.70;99.90;;;;;;5015883;28;20056;-84
2021/07/08 03:40:17;;;;;;;23.70;8.25;;;14.70;99.90;;;;;;5010765;28;20061;-84
2021/07/08 03:42:44;;;;;;;24.65;8.52;;;14.70;99.90;;;;;;5037837;28;20366;-84
2021/07/08 03:45:12;;;;;;;21.87;8.07;;;14.70;99.90;;;;;;5047065;28;20049;-84
2021/07/08 03:47:40;;;;;;;21.20;8.13;;;14.70;99.90;;;;;;5034083;28;20056;-84
2021/07/08 03:50:09;;;;;;;20.10;8.30;;;14.70;99.90;;;;;;5021749;28;20119;-84
2021/07/08 03:52:42;;;;;;;18.38;8.18;;;14.70;99.90;;;;;;5019197;28;20750;-84
2021/07/08 03:55:11;;;;;;;23.73;8.27;;;14.70;99.90;;;;;;5007665;28;20084;-84
2021/07/08 03:57:54;;;;;;;19.40;8.60;;;14.70;99.90;;;;;;5013601;28;20045;-84
2021/07/08 04:00:26;;;;;;;19.38;8.30;;;14.70;99.90;;;;;;5009699;28;20042;-84
2021/07/08 04:02:54;;;;;;;20.48;8.05;;;14.70;99.90;;;;;;5028839;28;20049;-84
2021/07/08 04:05:21;;;;;;;28.05;8.93;;;14.70;99.90;;;;;;5010902;28;20041;-84
2021/07/08 04:07:48;;;;;;;23.90;8.75;;;14.70;99.90;;;;;;5010836;28;20045;-83
2021/07/08 04:10:15;;;;;;;23.75;8.50;;;14.70;99.90;;;;;;5011562;28;20045;-84
2021/07/08 04:12:44;;;;;;;22.17;8.77;;;14.70;99.90;;;;;;5029982;28;20049;-84
2021/07/08 04:15:11;;;;;;;23.08;8.77;;;14.70;99.90;;;;;;5004271;28;20049;-84
2021/07/08 04:17:38;;;;;;;22.58;8.50;;;14.60;99.90;;;;;;5006657;28;20045;-83
2021/07/08 04:20:10;;;;;;;27.23;8.77;;;14.70;99.90;;;;;;5008577;28;20079;-84
2021/07/08 04:22:38;;;;;;;24.98;9.48;;;14.70;99.90;;;;;;5016701;28;20052;-83
2021/07/08 04:25:07;;;;;;;30.20;9.38;;;14.60;99.90;;;;;;5011285;28;20061;-84
2021/07/08 04:27:34;;;;;;;;;;;14.70;99.90;;;;;;5015147;28;20475;-83
2021/07/08 04:30:05;;;;;;;28.70;10.13;;;14.60;99.90;;;;;;5009763;28;19967;-83
2021/07/08 04:32:32;;;;;;;27.83;10.10;;;14.60;99.90;;;;;;5021495;28;20070;-84
2021/07/08 04:34:59;;;;;;;27.95;9.98;;;14.60;99.90;;;;;;5012863;28;20049;-84
2021/07/08 04:37:27;;;;;;;28.25;9.63;;;14.60;99.90;;;;;;5024253;28;20053;-84
2021/07/08 04:39:55;;;;;;;28.65;10.20;;;14.60;99.90;;;;;;5012530;28;20045;-83
2021/07/08 04:42:22;;;;;;;32.60;9.82;;;14.60;99.90;;;;;;5029589;28;20042;-84
2021/07/08 04:44:49;;;;;;;25.83;9.27;;;14.60;99.90;;;;;;5012801;28;20049;-84
2021/07/08 04:47:16;;;;;;;28.30;11.23;;;14.60;99.90;;;;;;5007332;28;20049;-84
2021/07/08 04:49:43;;;;;;;27.77;10.18;;;14.60;99.90;;;;;;5028275;28;20115;-84
2021/07/08 04:52:11;;;;;;;24.52;9.13;;;14.60;99.90;;;;;;5027771;28;20470;-84
2021/07/08 04:54:38;;;;;;;31.07;10.03;;;14.60;99.90;;;;;;5015165;28;20501;-84
2021/07/08 04:57:05;;;;;;;32.20;10.52;;;14.50;99.90;;;;;;5020342;28;20049;-85
2021/07/08 04:59:32;;;;;;;34.38;11.32;;;14.60;99.90;;;;;;5012122;28;20042;-84
2021/07/08 05:01:59;;;;;;;31.02;10.90;;;14.50;99.90;;;;;;5028896;28;20049;-87
2021/07/08 05:04:26;;;;;;;32.05;9.50;;;14.50;99.90;;;;;;5011627;28;20045;-84
2021/07/08 05:06:53;;;;;;;31.35;10.70;;;14.50;99.90;;;;;;5027575;28;20069;-84
2021/07/08 05:09:20;;;;;;;33.53;11.10;;;14.50;99.90;;;;;;5013035;28;20049;-84
2021/07/08 05:11:47;;;;;;;31.42;10.38;;;14.60;99.90;;;;;;5027509;28;20056;-84
2021/07/08 05:14:14;;;;;;;23.85;10.13;;;14.60;99.90;;;;;;5022386;28;20038;-84
2021/07/08 05:16:41;;;;;;;32.47;10.48;;;14.60;99.90;;;;;;5016631;28;20566;-84
2021/07/08 05:19:09;;;;;;;32.40;10.38;;;14.60;99.90;;;;;;5002901;28;20049;-84
2021/07/08 05:21:46;;;;;;;32.33;10.48;;;14.60;99.90;;;;;;5010104;28;20049;-83
2021/07/08 05:24:19;;;;;;;34.20;11.50;;;14.60;99.90;;;;;;5012904;28;20045;-86
2021/07/08 05:26:46;;;;;;;34.05;11.40;;;14.60;99.90;;;;;;5028370;28;20072;-85
2021/07/08 05:29:13;;;;;;;34.58;11.43;;;14.60;99.90;;;;;;5010732;28;20049;-84
2021/07/08 05:31:40;;;;;;;31.60;11.80;;;14.70;99.90;;;;;;5013055;28;20049;-84
2021/07/08 05:34:08;;;;;;;34.63;10.90;;;14.70;99.90;;;;;;5031602;28;20048;-84
2021/07/08 05:36:35;;;;;;;29.83;11.32;;;14.70;99.90;;;;;;5018128;28;20053;-84
2021/07/08 05:39:05;;;;;;;30.33;11.05;;;14.80;99.90;;;;;;5020822;28;20053;-84
2021/07/08 05:41:32;;;;;;;35.33;11.40;;;14.70;99.90;;;;;;5031674;28;20103;-84
2021/07/08 05:43:59;;;;;;;25.80;10.45;;;14.70;99.90;;;;;;5016532;28;20173;-84
2021/07/08 05:46:26;;;;;;;35.40;11.65;;;14.70;99.90;;;;;;5021296;28;20468;-84
2021/07/08 05:48:54;;;;;;;30.65;11.32;;;14.80;99.90;;;;;;5014286;28;20049;-84
2021/07/08 05:51:21;;;;;;;28.43;10.63;;;14.80;99.90;;;;;;5015991;28;20368;-84
2021/07/08 05:53:48;;;;;;;30.40;11.35;;;14.80;99.90;;;;;;5032580;28;20382;-84
2021/07/08 05:56:15;;;;;;;31.13;11.38;;;14.80;99.90;;;;;;5014615;28;20045;-84
2021/07/08 05:58:42;;;;;;;32.40;11.50;;;14.80;99.90;;;;;;5011121;28;20057;-84
2021/07/08 06:01:09;;;;;;;25.02;11.02;;;14.80;99.90;;;;;;5013856;28;20080;-84
2021/07/08 06:03:36;;;;;;;27.50;12.00;;;14.80;99.90;;;;;;5014532;28;20044;-84
2021/07/08 06:06:03;;;;;;;26.63;11.05;;;14.80;99.90;;;;;;5032710;28;20049;-84
2021/07/08 06:08:30;;;;;;;28.02;11.25;;;14.80;99.90;;;;;;5031982;28;20459;-84
2021/07/08 06:10:57;;;;;;;29.23;11.38;;;14.80;99.90;;;;;;4996515;28;20056;-84
2021/07/08 06:13:24;;;;;;;27.73;11.07;;;14.90;99.90;;;;;;5018956;28;20045;-83
2021/07/08 06:15:51;;;;;;;26.38;10.57;;;14.90;99.90;;;;;;5020171;28;20217;-84
2021/07/08 06:18:23;;;;;;;30.33;11.18;;;14.90;99.90;;;;;;5024350;28;20048;-84
2021/07/08 06:20:50;;;;;;;24.92;11.05;;;14.90;99.90;;;;;;5034669;28;20053;-85
2021/07/08 06:23:20;;;;;;;25.63;10.45;;;14.90;99.90;;;;;;5030553;28;20042;-84
2021/07/08 06:25:48;;;;;;;25.83;11.20;;;15.00;99.90;;;;;;5029850;28;20045;-84
2021/07/08 06:28:16;;;;;;;28.05;10.65;;;15.10;99.90;;;;;;5017600;28;20041;-84
2021/07/08 06:30:44;;;;;;;24.13;10.35;;;15.10;99.90;;;;;;5017630;28;20041;-84
2021/07/08 06:33:11;;;;;;;21.33;9.68;;;15.20;99.90;;;;;;5031138;28;20048;-84
2021/07/08 06:35:38;;;;;;;26.42;10.65;;;15.20;99.90;;;;;;5014467;28;20044;-84
2021/07/08 06:38:05;;;;;;;20.98;9.38;;;15.20;99.90;;;;;;5012206;28;20054;-84
2021/07/08 06:40:32;;;;;;;20.27;9.48;;;15.30;99.90;;;;;;5016398;28;20049;-84
2021/07/08 06:43:00;;;;;;;17.88;8.77;;;15.40;99.90;;;;;;5021084;28;20127;-84
2021/07/08 06:45:28;;;;;;;17.60;8.38;;;15.60;99.90;;;;;;5023995;28;20046;-84
2021/07/08 06:48:04;;;;;;;20.50;8.05;;;15.80;99.90;;;;;;5009750;28;20056;-84
2021/07/08 06:50:35;;;;;;;18.98;8.32;;;16.00;99.90;;;;;;5011380;28;20124;-84
2021/07/08 06:53:03;;;;;;;16.15;7.47;;;16.30;99.90;;;;;;5013599;28;20053;-84
2021/07/08 06:55:34;;;;;;;18.33;7.65;;;16.40;99.90;;;;;;5011540;28;20566;-84
2021/07/08 06:58:02;;;;;;;14.05;6.85;;;16.50;99.90;;;;;;5008570;28;20439;-84
2021/07/08 07:00:31;;;;;;;17.70;7.53;;;16.50;99.90;;;;;;5010520;28;20061;-84
2021/07/08 07:02:59;;;;;;;16.88;7.07;;;16.50;99.90;;;;;;5012524;28;20135;-85
2021/07/08 07:05:27;;;;;;;16.10;7.10;;;16.50;99.90;;;;;;5013619;28;20042;-84
2021/07/08 07:07:55;;;;;;;15.07;6.80;;;16.50;99.90;;;;;;5013235;28;20531;-84
2021/07/08 07:10:24;;;;;;;14.68;6.72;;;16.50;99.90;;;;;;5008382;28;20045;-84
2021/07/08 07:12:54;;;;;;;13.13;5.90;;;16.40;99.90;;;;;;5009079;28;20739;-84
2021/07/08 07:15:24;;;;;;;12.50;6.15;;;16.40;99.90;;;;;;5007601;28;20049;-84
2021/07/08 07:17:52;;;;;;;12.75;6.57;;;16.40;99.90;;;;;;5007683;28;20073;-84
2021/07/08 07:20:20;;;;;;;9.85;5.32;;;16.40;99.90;;;;;;5025811;28;20048;-84
2021/07/08 07:22:48;;;;;;;12.77;5.20;;;16.30;99.90;;;;;;5006736;28;20042;-84
2021/07/08 07:25:18;;;;;;;12.30;5.32;;;16.20;99.90;;;;;;5011221;28;20049;-84
2021/07/08 07:27:48;;;;;;;11.70;4.80;;;16.10;99.90;;;;;;5008201;28;20042;-84
2021/07/08 07:30:17;;;;;;;8.95;4.85;;;16.20;99.90;;;;;;5010269;28;20360;-84
2021/07/08 07:32:44;;;;;;;10.30;4.82;;;16.20;99.90;;;;;;5013836;28;20045;-84
2021/07/08 07:35:12;;;;;;;14.63;5.57;;;16.20;99.90;;;;;;5006641;28;20037;-84
2021/07/08 07:37:40;;;;;;;10.02;4.10;;;16.20;99.90;;;;;;5002836;28;20050;-84
2021/07/08 07:40:08;;;;;;;9.75;4.60;;;16.10;99.90;;;;;;5009362;28;20049;-84
2021/07/08 07:42:36;;;;;;;10.65;5.07;;;16.00;99.90;;;;;;5010747;28;20080;-84
2021/07/08 07:45:05;;;;;;;9.07;5.10;;;16.00;99.90;;;;;;5026611;28;20053;-84
2021/07/08 07:47:32;;;;;;;;;;;16.10;99.90;;;;;;5003911;28;20479;-84
2021/07/08 07:49:59;;;;;;;9.88;5.47;;;16.10;99.90;;;;;;5009491;28;19955;-84
2021/07/08 07:52:27;;;;;;;9.75;5.60;;;16.10;99.90;;;;;;5008482;28;20056;-83
2021/07/08 07:54:54;;;;;;;10.10;6.22;;;16.10;99.90;;;;;;5008032;28;20143;-84
2021/07/08 07:57:21;;;;;;;13.07;5.95;;;16.10;99.90;;;;;;5007312;28;20372;-84
2021/07/08 07:59:49;;;;;;;11.32;6.10;;;16.20;99.90;;;;;;5005217;28;20053;-85
2021/07/08 08:02:17;;;;;;;14.63;6.10;;;16.20;99.90;;;;;;5013496;28;20049;-84
2021/07/08 08:09:58;;;;;;;14.57;6.65;;;16.30;99.90;;;;;;5026432;28;20056;-83
2021/07/08 08:12:25;;;;;;;12.48;6.97;;;16.50;99.90;;;;;;4997910;28;20049;-84
2021/07/08 08:14:53;;;;;;;12.68;7.30;;;16.50;99.90;;;;;;5010579;28;20052;-84
2021/07/08 08:17:20;;;;;;;18.90;6.53;;;16.60;99.90;;;;;;5009564;28;20068;-84
2021/07/08 08:20:08;;;;;;;13.23;6.68;;;16.70;99.90;;;;;;5009789;28;20049;-84
2021/07/08 08:22:37;;;;;;;9.40;5.57;;;16.80;99.90;;;;;;5008922;28;20063;-84
2021/07/08 08:25:05;;;;;;;11.05;5.40;;;16.80;99.90;;;;;;5008182;28;20096;-84
2021/07/08 08:27:32;;;;;;;9.88;5.82;;;16.80;99.90;;;;;;5008943;28;20049;-84
2021/07/08 08:29:59;;;;;;;8.50;4.85;;;16.90;99.90;;;;;;5009329;28;20049;-84
2021/07/08 08:32:26;;;;;;;10.18;5.45;;;16.90;99.90;;;;;;5008321;28;20053;-84
2021/07/08 08:34:53;;;;;;;8.27;5.07;;;17.00;99.90;;;;;;5006458;28;20041;-84
2021/07/08 08:37:21;;;;;;;8.10;4.50;;;17.10;99.90;;;;;;5002789;28;20053;-84
2021/07/08 08:39:48;;;;;;;10.40;4.53;;;17.10;99.90;;;;;;5007170;28;20049;-84
2021/07/08 08:42:15;;;;;;;9.27;4.60;;;17.00;99.90;;;;;;5006910;28;20057;-84
2021/07/08 08:44:42;;;;;;;8.10;5.00;;;17.10;99.90;;;;;;5007334;28;20072;-85
2021/07/08 08:47:12;;;;;;;9.85;4.65;;;17.20;99.90;;;;;;5003199;28;20044;-84
2021/07/08 08:49:43;;;;;;;12.05;4.50;;;17.20;99.90;;;;;;5027181;28;20076;-84
2021/07/08 08:52:11;;;;;;;9.68;4.07;;;17.20;99.90;;;;;;5008554;28;20042;-84
2021/07/08 08:54:42;;;;;;;8.27;4.70;;;17.30;99.90;;;;;;5006542;28;20045;-84
2021/07/08 08:57:09;;;;;;;6.55;3.97;;;17.30;99.90;;;;;;5020221;28;20046;-84
2021/07/08 08:59:36;;;;;;;6.43;3.45;;;17.30;99.90;;;;;;5022396;28;20053;-84
2021/07/08 09:02:11;;;;;;;5.68;3.10;;;17.30;99.90;;;;;;5009270;28;20057;-84
2021/07/08 09:04:38;;;;;;;6.35;3.20;;;17.40;99.90;;;;;;5017980;28;20095;-84
2021/07/08 09:07:26;;;;;;;5.40;3.10;;;17.50;99.90;;;;;;5010925;28;20566;-84
2021/07/08 09:09:53;;;;;;;5.10;3.35;;;17.60;99.90;;;;;;5003315;28;20042;-84
2021/07/08 09:12:22;;;;;;;6.60;3.55;;;17.70;99.90;;;;;;5009589;28;20056;-85
2021/07/08 09:15:12;;;;;;;6.32;3.40;;;17.90;99.90;;;;;;5007770;28;20052;-84
2021/07/08 09:17:41;;;;;;;7.78;2.97;;;18.00;99.90;;;;;;5026703;28;20041;-84
2021/07/08 09:20:10;;;;;;;4.03;2.65;;;18.20;99.90;;;;;;5010503;28;20064;-84
2021/07/08 09:22:37;;;;;;;6.65;3.10;;;18.30;99.90;;;;;;5012414;28;20054;-85
2021/07/08 09:25:25;;;;;;;5.18;2.55;;;18.30;99.90;;;;;;5010878;28;20050;-85
2021/07/08 09:28:20;;;;;;;5.22;2.75;;;18.50;99.90;;;;;;5004728;28;20054;-84
2021/07/08 09:31:02;;;;;;;6.70;3.00;;;18.60;99.90;;;;;;5011640;28;20053;-84
2021/07/08 09:33:37;;;;;;;6.05;3.35;;;18.80;99.90;;;;;;5004674;28;20408;-84
2021/07/08 09:36:11;;;;;;;6.95;3.53;;;18.70;99.90;;;;;;5011062;28;20056;-84
2021/07/08 09:38:41;;;;;;;5.85;3.03;;;18.60;99.90;;;;;;4994167;28;20041;-85
2021/07/08 09:41:22;;;;;;;5.35;3.30;;;18.80;99.90;;;;;;4992718;28;20050;-84
2021/07/08 09:43:49;;;;;;;5.85;3.00;;;19.00;99.90;;;;;;5004171;28;20050;-84
2021/07/08 09:46:16;;;;;;;5.97;3.45;;;19.00;99.90;;;;;;4990936;28;20141;-84
2021/07/08 09:49:05;;;;;;;8.68;4.15;;;19.00;99.90;;;;;;4990457;28;20041;-84
2021/07/08 09:51:33;;;;;;;;;;;19.10;99.90;;;;;;4991260;28;20042;-84
2021/07/08 09:54:43;;;;;;;7.85;4.10;;;19.20;99.90;;;;;;4991879;28;19921;-84
2021/07/08 09:56:54;;;;;;;4.63;2.80;;;19.40;99.90;;;;;;5004116;28;20055;-84
2021/07/08 09:59:33;;;;;;;4.93;2.53;;;19.30;99.90;;;;;;5004881;28;20488;-84
2021/07/08 10:02:00;;;;;;;4.72;3.00;;;19.10;99.90;;;;;;4991884;28;20061;-84
2021/07/08 10:04:28;;;;;;;5.70;3.67;;;19.00;99.90;;;;;;4994175;28;20046;-84
2021/07/08 10:06:55;;;;;;;7.13;3.67;;;18.80;99.90;;;;;;4987978;28;20062;-84
2021/07/08 10:09:25;;;;;;;6.68;3.30;;;18.70;99.90;;;;;;4990865;28;20056;-84
2021/07/08 10:11:55;;;;;;;6.07;3.60;;;18.80;99.90;;;;;;5008257;28;20049;-84
2021/07/08 10:14:23;;;;;;;4.80;3.13;;;18.90;99.90;;;;;;4987888;28;20049;-85
2021/07/08 10:16:54;;;;;;;4.40;3.10;;;19.00;99.90;;;;;;4991156;28;20052;-84
2021/07/08 10:19:24;;;;;;;5.88;3.65;;;18.80;99.90;;;;;;4985566;28;20141;-84
2021/07/08 10:21:52;;;;;;;6.63;3.45;;;18.80;99.90;;;;;;4990469;28;20062;-84
2021/07/08 10:24:21;;;;;;;7.45;3.15;;;19.00;99.90;;;;;;5008684;28;20112;-85
2021/07/08 10:26:48;;;;;;;6.28;2.80;;;19.20;99.90;;;;;;4990518;28;20057;-84
2021/07/08 10:29:16;;;;;;;3.97;2.03;;;19.30;99.90;;;;;;4991390;28;20041;-84
2021/07/08 10:31:48;;;;;;;3.97;2.25;;;19.20;99.90;;;;;;4991461;28;20740;-84
2021/07/08 10:34:18;;;;;;;3.85;2.35;;;19.10;99.90;;;;;;4998402;28;20160;-84
2021/07/08 10:36:54;;;;;;;4.22;2.30;;;19.10;99.90;;;;;;5009658;28;20050;-84
2021/07/08 10:39:23;;;;;;;4.32;2.47;;;19.20;99.90;;;;;;5007044;28;20057;-84
2021/07/08 10:41:51;;;;;;;6.05;2.88;;;19.20;99.90;;;;;;5008675;28;20057;-85
2021/07/08 10:44:33;;;;;;;5.10;2.42;;;19.10;99.90;;;;;;5009523;28;20045;-88
2021/07/08 10:47:02;;;;;;;3.67;2.42;;;19.20;99.90;;;;;;5005523;28;20046;-86
2021/07/08 10:49:41;;;;;;;4.80;2.92;;;19.30;99.90;;;;;;5030270;28;20530;-83
2021/07/08 10:52:11;;;;;;;7.22;3.20;;;19.40;99.90;;;;;;5007557;28;20053;-83
2021/07/08 10:54:47;;;;;;;8.60;3.25;;;19.40;99.90;;;;;;5026384;28;20052;-84
2021/07/08 10:57:35;;;;;;;6.25;3.67;;;19.20;99.90;;;;;;5009714;28;20193;-83
2021/07/08 11:00:10;;;;;;;6.50;3.30;;;19.10;99.90;;;;;;5027371;28;20103;-83
2021/07/08 11:02:52;;;;;;;6.65;3.30;;;18.90;99.90;;;;;;5026291;28;20037;-83
2021/07/08 11:05:57;;;;;;;7.00;2.92;;;18.80;99.90;;;;;;5026051;28;20410;-85
2021/07/08 11:08:49;;;;;;;6.10;3.33;;;18.70;99.90;;;;;;5005423;28;20513;-85
2021/07/08 11:11:19;;;;;;;6.35;3.70;;;18.60;99.90;;;;;;5010053;28;20060;-83
2021/07/08 11:13:47;;;;;;;5.97;3.25;;;18.40;99.90;;;;;;5002816;28;20049;-83
2021/07/08 11:16:39;;;;;;;6.67;3.23;;;18.30;99.90;;;;;;5007318;28;20048;-84
2021/07/08 11:19:06;;;;;;;5.70;3.10;;;18.10;99.90;;;;;;5002259;28;20304;-84
2021/07/08 11:21:53;;;;;;;6.47;2.58;;;17.90;99.90;;;;;;5000436;28;20492;-84
2021/07/08 11:24:29;;;;;;;5.63;2.78;;;17.80;99.90;;;;;;5008316;28;20120;-84
2021/07/08 11:26:59;;;;;;;7.13;2.78;;;17.70;99.90;;;;;;5010221;28;20400;-84
2021/07/08 11:29:47;;;;;;;6.30;2.63;;;17.60;99.90;;;;;;5006173;28;20128;-84
2021/07/08 11:32:30;;;;;;;6.20;2.83;;;17.60;99.90;;;;;;5009823;28;20049;-84
2021/07/08 11:35:21;;;;;;;6.75;2.80;;;17.60;99.90;;;;;;5026892;28;20384;-84
2021/07/08 11:38:11;;;;;;;6.78;2.75;;;17.60;99.90;;;;;;5026209;28;20037;-83
2021/07/08 11:40:47;;;;;;;4.13;1.83;;;17.80;99.90;;;;;;5010343;28;20434;-83
2021/07/08 11:43:36;;;;;;;3.90;2.00;;;17.80;99.90;;;;;;5007331;28;20495;-84
2021/07/08 11:46:06;;;;;;;4.05;2.05;;;17.90;99.90;;;;;;5007910;28;20057;-84
2021/07/08 11:48:39;;;;;;;4.57;1.58;;;17.90;99.90;;;;;;5009309;28;20045;-84
2021/07/08 11:51:15;;;;;;;2.80;1.67;;;17.80;99.90;;;;;;5008786;28;20527;-84
2021/07/08 11:53:44;;;;;;;5.30;1.73;;;17.80;99.90;;;;;;5004406;28;20053;-83
2021/07/08 11:56:14;;;;;;;3.42;1.63;;;17.80;99.90;;;;;;5026882;28;20128;-84
2021/07/08 11:58:41;;;;;;;4.32;1.60;;;17.80;99.90;;;;;;5019285;28;20045;-84
2021/07/08 12:01:12;;;;;;;3.85;1.80;;;17.80;99.90;;;;;;5009419;28;20493;-84
2021/07/08 12:03:45;;;;;;;2.72;1.63;;;17.90;99.90;;;;;;5022971;28;20457;-84
2021/07/08 12:06:17;;;;;;;3.70;1.67;;;17.80;99.90;;;;;;5009150;28;20041;-84
2021/07/08 12:08:50;;;;;;;2.95;1.73;;;17.80;99.90;;;;;;5005217;28;20041;-84
2021/07/08 12:11:24;;;;;;;5.30;2.30;;;17.80;99.90;;;;;;5021322;28;20408;-84
2021/07/08 12:13:56;;;;;;;4.55;2.00;;;17.90;99.90;;;;;;5005670;28;20045;-84
2021/07/08 12:16:41;;;;;;;3.42;1.80;;;17.80;99.90;;;;;;5001542;28;20052;-84
2021/07/08 12:19:29;;;;;;;4.32;2.60;;;17.80;99.90;;;;;;5024077;28;20046;-85
2021/07/08 12:21:57;;;;;;;;;;;17.70;99.90;;;;;;5024421;28;20038;-85
2021/07/08 12:24:36;;;;;;;3.60;1.90;;;17.70;99.90;;;;;;5007800;28;20011;-85
2021/07/08 12:27:07;;;;;;;4.18;1.90;;;17.90;99.90;;;;;;5010842;28;20056;-84
2021/07/08 12:29:37;;;;;;;4.82;2.20;;;18.00;99.90;;;;;;4999011;28;20053;-85
2021/07/08 12:32:15;;;;;;;3.58;2.05;;;18.20;99.90;;;;;;5021531;28;20048;-84
2021/07/08 12:34:49;;;;;;;4.45;2.17;;;18.30;99.90;;;;;;5020280;28;20048;-85
2021/07/08 12:37:24;;;;;;;4.63;1.90;;;18.40;99.90;;;;;;5010684;28;20041;-84
2021/07/08 12:40:07;;;;;;;4.22;2.10;;;18.60;99.90;;;;;;5007331;28;20045;-85
2021/07/08 12:42:44;;;;;;;4.43;2.30;;;18.60;99.90;;;;;;5006235;28;20037;-85
2021/07/08 12:45:13;;;;;;;5.00;2.28;;;18.60;99.90;;;;;;5018301;28;20070;-84
2021/07/08 12:47:46;;;;;;;4.75;2.08;;;18.60;99.90;;;;;;5006060;28;20497;-85
2021/07/08 12:50:19;;;;;;;3.30;2.10;;;18.50;99.90;;;;;;5004941;28;20072;-84
2021/07/08 12:52:46;;;;;;;3.45;2.10;;;18.40;99.90;;;;;;5020856;28;20041;-85
2021/07/08 12:55:48;;;;;;;3.85;2.10;;;18.30;99.90;;;;;;5003949;28;20045;-84
2021/07/08 12:58:21;;;;;;;4.45;1.95;;;18.10;99.90;;;;;;5000897;28;20062;-84